Time;durP1;ratioP1;P1;durP2;ratioP2;P2;SDS_P1;SDS_P2;PMS_P1;PMS_P2;Temp;Humidity;BMP_temperature;BMP_pressure;BME280_temperature;BME280_humidity;BME280_pressure;Samples;Min_cycle;Max_cycle;Signal;HPM_P1;HPM_P2
2024/01/14 00:01:59;;;;;;;122.10;110.53;;;0.00;99.90;;;;;;5044932;28;20033;-76
2024/01/14 00:04:25;;;;;;;119.13;107.43;;;0.00;99.90;;;;;;5051528;28;20037;-75
2024/01/14 00:06:51;;;;;;;79.83;63.97;;;0.00;99.90;;;;;;5037827;28;20033;-76
2024/01/14 00:09:17;;;;;;;63.07;58.17;;;0.00;99.90;;;;;;5033034;28;20022;-76
2024/01/14 00:11:43;;;;;;;92.97;76.43;;;-0.20;99.90;;;;;;5032207;28;20050;-75
2024/01/14 00:14:09;;;;;;;78.83;70.17;;;-0.10;99.90;;;;;;5045289;28;20021;-76
2024/01/14 00:16:35;;;;;;;82.80;63.63;;;-0.20;99.90;;;;;;5039790;28;20046;-75
2024/01/14 00:19:05;;;;;;;97.83;87.67;;;-0.30;99.90;;;;;;5032848;28;20033;-76
2024/01/14 00:21:34;;;;;;;111.93;100.63;;;-0.20;99.90;;;;;;5036193;28;20036;-76
2024/01/14 00:24:00;;;;;;;103.03;92.70;;;0.10;99.90;;;;;;5052167;28;20052;-76
2024/01/14 00:26:28;;;;;;;107.17;96.60;;;0.10;99.90;;;;;;5042401;28;20057;-70
2024/01/14 00:28:55;;;;;;;113.20;102.07;;;0.10;99.90;;;;;;5031816;28;20064;-70
2024/01/14 00:31:21;;;;;;;92.03;78.60;;;0.10;99.90;;;;;;5029977;28;20041;-71
2024/01/14 00:33:49;;;;;;;67.87;61.97;;;0.20;99.90;;;;;;5032632;28;20040;-70
2024/01/14 00:36:16;;;;;;;65.73;59.07;;;0.00;99.90;;;;;;5031792;28;20041;-70
2024/01/14 00:38:42;;;;;;;91.73;81.27;;;-0.10;99.90;;;;;;5045349;28;20033;-70
2024/01/14 00:41:08;;;;;;;97.27;86.83;;;-0.10;99.90;;;;;;5051036;28;20387;-71
2024/01/14 00:43:34;;;;;;;74.03;62.63;;;0.00;99.90;;;;;;5052021;28;20045;-71
2024/01/14 00:46:02;;;;;;;104.00;92.83;;;0.00;99.90;;;;;;5046640;28;20037;-70
2024/01/14 00:48:29;;;;;;;64.23;58.60;;;0.00;99.90;;;;;;5051239;28;20081;-70
2024/01/14 00:50:55;;;;;;;88.53;72.30;;;0.00;99.90;;;;;;5045659;28;20378;-71
2024/01/14 00:53:21;;;;;;;78.00;63.10;;;-0.10;99.90;;;;;;5032226;28;20037;-70
2024/01/14 00:55:47;;;;;;;92.80;78.93;;;-0.20;99.90;;;;;;5034980;28;20475;-71
2024/01/14 00:58:13;;;;;;;81.83;65.10;;;-0.20;99.90;;;;;;5051939;28;20033;-71
2024/01/14 01:00:39;;;;;;;81.57;65.23;;;-0.10;99.90;;;;;;5048522;28;20407;-70
2024/01/14 01:03:05;;;;;;;102.93;91.83;;;-0.10;99.90;;;;;;5051845;28;20033;-70
2024/01/14 01:05:31;;;;;;;97.40;79.47;;;-0.10;99.90;;;;;;5048639;28;20037;-70
2024/01/14 01:07:57;;;;;;;100.53;87.30;;;-0.10;99.90;;;;;;5032252;28;20029;-70
2024/01/14 01:10:23;;;;;;;102.73;81.97;;;-0.10;99.90;;;;;;5044921;28;20040;-71
2024/01/14 01:12:50;;;;;;;57.63;48.40;;;-0.10;99.90;;;;;;5047754;28;20037;-71
2024/01/14 01:15:16;;;;;;;102.33;81.47;;;-0.20;99.90;;;;;;5049961;28;20032;-70
2024/01/14 01:17:42;;;;;;;65.40;59.17;;;-0.20;99.90;;;;;;5041056;28;20041;-71
2024/01/14 01:20:08;;;;;;;86.87;69.23;;;-0.20;99.90;;;;;;5051711;28;20036;-70
2024/01/14 01:22:34;;;;;;;87.40;71.80;;;-0.30;99.90;;;;;;5050082;28;20040;-71
2024/01/14 01:25:01;;;;;;;88.33;75.63;;;-0.30;99.90;;;;;;5051850;28;20028;-70
2024/01/14 01:27:29;;;;;;;94.87;66.60;;;-0.30;99.90;;;;;;5031642;28;20454;-71
2024/01/14 01:29:58;;;;;;;81.40;75.13;;;-0.30;99.90;;;;;;5045910;28;20044;-70
2024/01/14 01:32:24;;;;;;;110.37;89.10;;;-0.30;99.90;;;;;;5050043;28;20060;-71
2024/01/14 01:34:50;;;;;;;80.33;62.83;;;-0.30;99.90;;;;;;5050617;28;20034;-71
2024/01/14 01:37:16;;;;;;;77.50;55.57;;;-0.20;99.90;;;;;;5038772;28;20467;-70
2024/01/14 01:39:43;;;;;;;92.30;60.73;;;-0.20;99.90;;;;;;5051671;28;20036;-70
2024/01/14 01:42:10;;;;;;;92.80;63.73;;;-0.10;99.90;;;;;;5040914;28;20037;-70
2024/01/14 01:44:36;;;;;;;68.53;56.03;;;-0.10;99.90;;;;;;5050853;28;20059;-71
2024/01/14 01:47:02;;;;;;;71.73;56.93;;;-0.10;99.90;;;;;;5049479;28;20514;-71
2024/01/14 01:49:29;;;;;;;78.20;55.80;;;-0.10;99.90;;;;;;5033066;28;20049;-70
2024/01/14 01:51:55;;;;;;;92.37;64.43;;;-0.20;99.90;;;;;;5045041;28;20057;-71
2024/01/14 01:54:22;;;;;;;99.37;71.87;;;-0.10;99.90;;;;;;5050603;28;20502;-70
2024/01/14 01:56:49;;;;;;;98.27;74.50;;;0.00;99.90;;;;;;5020976;28;20049;-70
2024/01/14 01:59:16;;;;;;;110.40;94.90;;;0.00;99.90;;;;;;5050208;28;20029;-70
2024/01/14 02:01:42;;;;;;;88.97;69.87;;;0.10;99.90;;;;;;5032767;28;20483;-71
2024/01/14 02:04:08;;;;;;;96.30;67.40;;;0.10;99.90;;;;;;5033528;28;20029;-71
2024/01/14 02:06:35;;;;;;;91.67;67.87;;;0.00;99.90;;;;;;5047156;28;20033;-70
2024/01/14 02:09:01;;;;;;;100.10;77.70;;;0.00;99.90;;;;;;5033796;28;20036;-70
2024/01/14 02:11:27;;;;;;;79.33;59.23;;;0.10;99.90;;;;;;5039663;28;20480;-70
2024/01/14 02:13:53;;;;;;;84.57;63.93;;;0.20;99.90;;;;;;5039979;28;20029;-71
2024/01/14 02:16:20;;;;;;;101.30;67.63;;;0.10;99.90;;;;;;5041183;28;20033;-70
2024/01/14 02:18:46;;;;;;;87.27;61.37;;;0.10;99.90;;;;;;5047034;28;20029;-70
2024/01/14 02:21:14;;;;;;;90.10;64.47;;;0.20;99.90;;;;;;5044284;28;20036;-71
2024/01/14 02:23:41;;;;;;;68.43;57.13;;;0.10;99.90;;;;;;5016873;28;20037;-71
2024/01/14 02:26:07;;;;;;;117.10;81.90;;;0.10;99.90;;;;;;5042039;28;20021;-71
2024/01/14 02:28:33;;;;;;;107.87;74.30;;;0.20;99.90;;;;;;5030909;28;20070;-70
2024/01/14 02:30:59;;;;;;;102.87;77.83;;;0.40;99.90;;;;;;5030781;28;20556;-70
2024/01/14 02:33:25;;;;;;;103.57;75.37;;;0.60;99.90;;;;;;5013228;28;20040;-71
2024/01/14 02:35:54;;;;;;;111.37;87.63;;;0.30;99.90;;;;;;5028241;28;20492;-70
2024/01/14 02:38:20;;;;;;;108.23;87.60;;;0.30;99.90;;;;;;5050405;28;20072;-76
2024/01/14 02:40:46;;;;;;;108.13;81.57;;;0.40;99.90;;;;;;5048764;28;20041;-76
2024/01/14 02:43:12;;;;;;;100.57;70.17;;;0.40;99.90;;;;;;5035645;28;20484;-75
2024/01/14 02:45:40;;;;;;;105.67;73.53;;;0.40;99.90;;;;;;5050330;28;20499;-75
2024/01/14 02:48:06;;;;;;;110.27;81.63;;;0.40;99.90;;;;;;5047581;28;20036;-75
2024/01/14 02:50:32;;;;;;;107.43;78.40;;;0.40;99.90;;;;;;5054397;28;20029;-75
2024/01/14 02:52:58;;;;;;;106.87;94.20;;;0.30;99.90;;;;;;5054117;28;20379;-76
2024/01/14 02:55:24;;;;;;;100.97;87.30;;;0.30;99.90;;;;;;5051970;28;20032;-76
2024/01/14 02:57:50;;;;;;;99.63;75.90;;;0.30;99.90;;;;;;5052248;28;20487;-76
2024/01/14 03:00:17;;;;;;;104.80;73.40;;;0.30;99.90;;;;;;5052270;28;20033;-76
2024/01/14 03:02:43;;;;;;;99.60;75.63;;;0.30;99.90;;;;;;5047481;28;20072;-76
2024/01/14 03:05:09;;;;;;;107.30;85.23;;;0.40;99.90;;;;;;5044194;28;20029;-76
2024/01/14 03:07:35;;;;;;;98.00;85.03;;;0.30;99.90;;;;;;5044916;28;20470;-75
2024/01/14 03:10:01;;;;;;;89.23;75.37;;;0.20;99.90;;;;;;5052450;28;20029;-76
2024/01/14 03:12:27;;;;;;;100.03;75.97;;;0.00;99.90;;;;;;5050368;28;20099;-76
2024/01/14 03:14:53;;;;;;;122.80;106.50;;;0.00;99.90;;;;;;5038941;28;20040;-77
2024/01/14 03:17:19;;;;;;;98.33;77.40;;;-0.10;99.90;;;;;;5051965;28;20052;-76
2024/01/14 03:19:45;;;;;;;70.17;62.90;;;0.00;99.90;;;;;;5052492;28;20089;-77
2024/01/14 03:22:11;;;;;;;117.20;104.77;;;0.00;99.90;;;;;;5035262;28;20033;-75
2024/01/14 03:24:37;;;;;;;105.37;81.03;;;-0.10;99.90;;;;;;5047558;28;20036;-76
2024/01/14 03:27:04;;;;;;;92.47;82.10;;;-0.10;99.90;;;;;;5038022;28;20041;-76
2024/01/14 03:29:30;;;;;;;92.97;64.57;;;-0.10;99.90;;;;;;5051355;28;20040;-76
2024/01/14 03:31:56;;;;;;;85.97;66.70;;;-0.10;99.90;;;;;;5049974;28;20049;-76
2024/01/14 03:34:23;;;;;;;72.60;51.50;;;-0.20;99.90;;;;;;5051819;28;20025;-76
2024/01/14 03:36:49;;;;;;;80.83;72.00;;;-0.20;99.90;;;;;;5050523;28;20048;-76
2024/01/14 03:39:15;;;;;;;105.77;68.43;;;-0.20;99.90;;;;;;5053451;28;20037;-71
2024/01/14 03:41:41;;;;;;;69.77;61.23;;;-0.10;99.90;;;;;;5040613;28;20048;-71
2024/01/14 03:44:07;;;;;;;116.70;92.47;;;0.00;99.90;;;;;;5033783;28;20061;-71
2024/01/14 03:46:33;;;;;;;101.87;74.60;;;-0.10;99.90;;;;;;5042934;28;20529;-71
2024/01/14 03:48:59;;;;;;;130.67;113.77;;;-0.10;99.90;;;;;;5053714;28;20033;-71
2024/01/14 03:51:26;;;;;;;113.80;92.80;;;0.00;99.90;;;;;;5052495;28;20501;-71
2024/01/14 03:53:52;;;;;;;126.27;102.63;;;0.10;99.90;;;;;;5053140;28;20024;-71
2024/01/14 03:56:18;;;;;;;114.53;74.23;;;0.20;99.90;;;;;;5043849;28;20479;-71
2024/01/14 03:58:44;;;;;;;125.60;94.47;;;0.20;99.90;;;;;;5033409;28;20036;-71
2024/01/14 04:01:19;;;;;;;121.43;93.87;;;0.30;99.90;;;;;;5045591;28;20033;-71
2024/01/14 04:03:45;;;;;;;128.57;92.83;;;0.50;99.90;;;;;;5053171;28;20033;-71
2024/01/14 04:06:11;;;;;;;116.17;81.07;;;0.50;99.90;;;;;;5043312;28;20060;-71
2024/01/14 04:08:37;;;;;;;125.97;86.10;;;0.30;99.90;;;;;;5047001;28;20056;-71
2024/01/14 04:11:03;;;;;;;121.20;80.33;;;0.40;99.90;;;;;;5045758;28;20034;-71
2024/01/14 04:13:29;;;;;;;124.17;91.97;;;0.50;99.90;;;;;;5045721;28;20030;-71
2024/01/14 04:15:56;;;;;;;105.53;75.37;;;0.40;99.90;;;;;;5033455;28;20033;-71
2024/01/14 04:18:22;;;;;;;114.07;73.07;;;0.30;99.90;;;;;;5032880;28;20030;-71
2024/01/14 04:20:48;;;;;;;98.33;71.57;;;0.30;99.90;;;;;;5032637;28;20034;-71
2024/01/14 04:23:15;;;;;;;96.00;64.53;;;0.30;99.90;;;;;;5032780;28;20033;-71
2024/01/14 04:25:41;;;;;;;107.23;77.73;;;0.30;99.90;;;;;;5032538;28;20036;-71
2024/01/14 04:28:07;;;;;;;101.00;68.03;;;0.20;99.90;;;;;;5040058;28;20490;-71
2024/01/14 04:30:33;;;;;;;94.20;66.50;;;0.30;99.90;;;;;;5050713;28;20037;-71
2024/01/14 04:32:59;;;;;;;107.50;84.83;;;0.20;99.90;;;;;;5052508;28;20037;-71
2024/01/14 04:35:25;;;;;;;104.83;77.87;;;0.10;99.90;;;;;;5051911;28;20025;-71
2024/01/14 04:37:51;;;;;;;103.20;64.27;;;0.10;99.90;;;;;;5052408;28;20040;-71
2024/01/14 04:40:18;;;;;;;99.23;82.47;;;0.10;99.90;;;;;;5051058;28;20391;-71
2024/01/14 04:42:44;;;;;;;104.13;62.73;;;0.10;99.90;;;;;;5034901;28;20412;-71
2024/01/14 04:45:10;;;;;;;102.70;71.67;;;0.10;99.90;;;;;;5050582;28;20028;-71
2024/01/14 04:47:36;;;;;;;103.00;77.30;;;0.10;99.90;;;;;;5049910;28;20033;-71
2024/01/14 04:50:02;;;;;;;106.67;70.47;;;0.10;99.90;;;;;;5051575;28;20040;-71
2024/01/14 04:52:28;;;;;;;102.60;70.00;;;0.10;99.90;;;;;;5033031;28;20037;-71
2024/01/14 04:54:54;;;;;;;99.80;57.47;;;0.20;99.90;;;;;;5040419;28;20025;-71
2024/01/14 04:57:20;;;;;;;92.27;72.30;;;0.20;99.90;;;;;;5034016;28;20029;-71
2024/01/14 04:59:46;;;;;;;105.53;82.20;;;0.10;99.90;;;;;;5047239;28;20036;-71
2024/01/14 05:02:13;;;;;;;103.70;65.87;;;0.00;99.90;;;;;;5048968;28;20036;-71
2024/01/14 05:04:39;;;;;;;101.03;64.53;;;0.10;99.90;;;;;;5051263;28;20052;-71
2024/01/14 05:07:05;;;;;;;96.10;66.03;;;0.10;99.90;;;;;;5036098;28;20033;-71
2024/01/14 05:09:31;;;;;;;115.10;68.63;;;0.10;99.90;;;;;;5041131;28;20037;-71
2024/01/14 05:11:57;;;;;;;118.87;76.70;;;0.00;99.90;;;;;;5050636;28;20028;-71
2024/01/14 05:14:23;;;;;;;112.77;76.47;;;0.20;99.90;;;;;;5046361;28;20044;-71
2024/01/14 05:16:49;;;;;;;126.93;105.20;;;0.20;99.90;;;;;;5037501;28;20491;-71
2024/01/14 05:19:15;;;;;;;139.77;118.50;;;0.40;99.90;;;;;;5049106;28;20032;-71
2024/01/14 05:21:42;;;;;;;122.20;94.27;;;0.40;99.90;;;;;;5040041;28;20046;-71
2024/01/14 05:24:08;;;;;;;133.97;87.00;;;0.30;99.90;;;;;;5051355;28;20399;-71
2024/01/14 05:26:39;;;;;;;104.40;61.43;;;0.30;99.90;;;;;;5051085;28;20033;-70
2024/01/14 05:29:05;;;;;;;;;;;0.30;99.90;;;;;;5051606;28;20044;-71
2024/01/14 05:31:31;;;;;;;106.57;92.80;;;0.20;99.90;;;;;;5039732;28;20302;-71
2024/01/14 05:33:57;;;;;;;107.00;80.33;;;0.20;99.90;;;;;;5047380;28;20025;-71
2024/01/14 05:36:23;;;;;;;111.37;72.50;;;0.20;99.90;;;;;;5050808;28;20033;-71
2024/01/14 05:38:49;;;;;;;116.53;72.67;;;0.20;99.90;;;;;;5050355;28;20060;-71
2024/01/14 05:41:15;;;;;;;105.40;64.70;;;0.30;99.90;;;;;;5042413;28;20025;-71
2024/01/14 05:43:41;;;;;;;116.77;81.53;;;0.20;99.90;;;;;;5046665;28;20048;-72
2024/01/14 05:46:07;;;;;;;109.03;74.00;;;0.20;99.90;;;;;;5049365;28;20029;-71
2024/01/14 05:48:33;;;;;;;117.20;69.87;;;0.30;99.90;;;;;;5041291;28;20044;-71
2024/01/14 05:50:59;;;;;;;111.57;68.40;;;0.30;99.90;;;;;;5046996;28;20029;-71
2024/01/14 05:53:27;;;;;;;120.03;71.73;;;0.30;99.90;;;;;;5050918;28;20039;-71
2024/01/14 05:55:53;;;;;;;117.80;71.17;;;0.40;99.90;;;;;;5046790;28;20040;-71
2024/01/14 05:58:19;;;;;;;133.03;109.37;;;0.40;99.90;;;;;;5051607;28;20028;-71
2024/01/14 06:00:45;;;;;;;109.40;66.67;;;0.60;99.90;;;;;;5045647;28;20029;-71
2024/01/14 06:03:11;;;;;;;103.97;68.07;;;0.60;99.90;;;;;;5042074;28;20036;-71
2024/01/14 06:05:37;;;;;;;121.87;67.67;;;0.40;99.90;;;;;;5047133;28;20033;-71
2024/01/14 06:08:04;;;;;;;178.07;85.53;;;0.40;99.90;;;;;;5030006;28;20034;-71
2024/01/14 06:10:30;;;;;;;114.83;68.47;;;0.60;99.90;;;;;;5046930;28;20618;-71
2024/01/14 06:12:56;;;;;;;125.80;66.87;;;0.70;99.90;;;;;;5051317;28;20037;-71
2024/01/14 06:15:22;;;;;;;121.27;79.70;;;0.70;99.90;;;;;;5051567;28;20036;-71
2024/01/14 06:17:48;;;;;;;123.10;86.43;;;0.90;99.90;;;;;;5034832;28;20056;-71
2024/01/14 06:20:14;;;;;;;131.23;111.07;;;0.90;99.90;;;;;;5035128;28;20097;-72
2024/01/14 06:22:40;;;;;;;128.80;97.73;;;0.70;99.90;;;;;;5044824;28;20052;-71
2024/01/14 06:25:07;;;;;;;99.90;57.90;;;0.40;99.90;;;;;;5055038;28;20033;-71
2024/01/14 06:27:33;;;;;;;116.77;69.00;;;0.40;99.90;;;;;;5040043;28;20364;-71
2024/01/14 06:30:01;;;;;;;105.87;78.43;;;0.40;99.90;;;;;;5035086;28;20021;-72
2024/01/14 06:32:27;;;;;;;118.60;94.00;;;0.30;99.90;;;;;;5053034;28;20532;-71
2024/01/14 06:34:53;;;;;;;141.57;126.00;;;0.40;99.90;;;;;;5053142;28;20021;-71
2024/01/14 06:37:19;;;;;;;126.13;112.17;;;0.40;99.90;;;;;;5054217;28;20045;-71
2024/01/14 06:39:45;;;;;;;126.80;109.07;;;0.50;99.90;;;;;;5055017;28;20029;-71
2024/01/14 06:42:11;;;;;;;143.90;129.30;;;0.50;99.90;;;;;;5053132;28;20045;-71
2024/01/14 06:44:41;;;;;;;115.57;89.57;;;0.40;99.90;;;;;;5054515;28;20025;-71
2024/01/14 06:47:07;;;;;;;157.77;142.23;;;0.40;99.90;;;;;;5052596;28;20032;-71
2024/01/14 06:49:33;;;;;;;146.33;130.80;;;0.40;99.90;;;;;;5054624;28;20042;-71
2024/01/14 06:51:59;;;;;;;114.03;101.40;;;0.40;99.90;;;;;;5053460;28;20053;-76
2024/01/14 06:54:25;;;;;;;154.93;139.20;;;0.50;99.90;;;;;;5054279;28;20029;-75
2024/01/14 06:56:51;;;;;;;146.03;131.40;;;0.60;99.90;;;;;;5040554;28;20029;-75
2024/01/14 06:59:18;;;;;;;185.57;133.03;;;0.60;99.90;;;;;;5051660;28;20028;-75
2024/01/14 07:01:45;;;;;;;129.50;116.43;;;0.80;99.90;;;;;;5044492;28;20036;-75
2024/01/14 07:04:11;;;;;;;398.93;130.50;;;1.00;99.90;;;;;;5054127;28;20036;-76
2024/01/14 07:06:38;;;;;;;129.33;116.20;;;0.90;99.90;;;;;;5042281;28;20033;-76
2024/01/14 07:09:04;;;;;;;91.77;76.90;;;0.80;99.90;;;;;;5042410;28;20029;-76
2024/01/14 07:11:30;;;;;;;141.00;127.57;;;0.70;99.90;;;;;;5043003;28;20033;-75
2024/01/14 07:13:58;;;;;;;151.23;137.80;;;0.70;99.90;;;;;;5053500;28;20055;-76
2024/01/14 07:16:24;;;;;;;133.23;119.87;;;0.80;99.90;;;;;;5043489;28;20034;-76
2024/01/14 07:18:50;;;;;;;144.33;130.43;;;0.90;99.90;;;;;;5034612;28;20033;-75
2024/01/14 07:21:20;;;;;;;122.60;110.60;;;1.00;99.90;;;;;;5034229;28;20033;-76
2024/01/14 07:23:47;;;;;;;124.50;105.22;;;1.10;99.90;;;;;;5033914;28;20491;-74
2024/01/14 07:26:14;;;;;;;112.33;96.23;;;1.20;99.90;;;;;;5045076;28;20041;-75
2024/01/14 07:28:40;;;;;;;142.47;128.07;;;1.10;99.90;;;;;;5052106;28;20037;-76
2024/01/14 07:31:06;;;;;;;155.07;140.13;;;1.00;99.90;;;;;;5053278;28;20498;-76
2024/01/14 07:33:32;;;;;;;153.17;138.50;;;1.20;99.90;;;;;;5052364;28;20049;-73
2024/01/14 07:35:58;;;;;;;151.63;136.53;;;1.10;99.90;;;;;;5052827;28;20029;-76
2024/01/14 07:38:24;;;;;;;113.23;99.30;;;1.00;99.90;;;;;;5053439;28;20040;-74
2024/01/14 07:40:50;;;;;;;200.73;183.17;;;0.90;99.90;;;;;;5053364;28;20029;-77
2024/01/14 07:43:17;;;;;;;202.00;183.60;;;0.80;99.90;;;;;;5053069;28;20056;-76
2024/01/14 07:45:43;;;;;;;159.73;144.37;;;0.80;99.90;;;;;;5051113;28;20033;-76
2024/01/14 07:48:09;;;;;;;212.43;193.33;;;0.80;99.90;;;;;;5053701;28;20032;-77
2024/01/14 07:50:35;;;;;;;223.50;205.13;;;0.80;99.90;;;;;;5053196;28;20391;-76
2024/01/14 07:53:01;;;;;;;220.53;201.53;;;1.00;99.90;;;;;;5052901;28;20052;-76
2024/01/14 07:55:27;;;;;;;214.73;195.80;;;1.10;99.90;;;;;;5051174;28;20045;-72
2024/01/14 07:57:55;;;;;;;181.37;164.60;;;1.20;99.90;;;;;;5052406;28;20036;-71
2024/01/14 08:00:21;;;;;;;210.20;191.53;;;1.40;99.90;;;;;;5050655;28;20048;-72
2024/01/14 08:02:47;;;;;;;155.60;140.07;;;1.30;99.90;;;;;;5049655;28;20080;-73
2024/01/14 08:05:13;;;;;;;174.33;157.73;;;1.20;99.90;;;;;;5050832;28;20033;-71
2024/01/14 08:07:39;;;;;;;194.40;177.53;;;1.00;99.90;;;;;;5046347;28;20526;-71
2024/01/14 08:10:06;;;;;;;109.07;97.30;;;0.80;99.90;;;;;;5050494;28;20041;-71
2024/01/14 08:12:32;;;;;;;164.33;148.63;;;0.80;99.90;;;;;;5051511;28;20049;-71
2024/01/14 08:14:58;;;;;;;174.07;157.80;;;0.80;99.90;;;;;;5048259;28;20033;-72
2024/01/14 08:17:25;;;;;;;193.03;176.00;;;0.70;99.90;;;;;;5051220;28;20037;-71
2024/01/14 08:19:51;;;;;;;223.37;204.47;;;0.80;99.90;;;;;;5048942;28;20060;-71
2024/01/14 08:22:18;;;;;;;213.23;195.27;;;1.00;99.90;;;;;;5050851;28;20036;-71
2024/01/14 08:24:44;;;;;;;194.00;177.27;;;1.20;99.90;;;;;;5051863;28;20403;-71
2024/01/14 08:27:10;;;;;;;191.07;173.90;;;1.40;99.90;;;;;;5049090;28;20395;-72
2024/01/14 08:29:36;;;;;;;185.83;169.37;;;1.60;99.90;;;;;;5052105;28;20365;-71
2024/01/14 08:32:02;;;;;;;176.27;160.23;;;1.60;99.90;;;;;;5049015;28;20036;-71
2024/01/14 08:34:28;;;;;;;121.40;108.60;;;1.70;99.90;;;;;;5052210;28;20029;-71
2024/01/14 08:36:54;;;;;;;128.63;115.07;;;1.70;99.90;;;;;;5051031;28;20033;-72
2024/01/14 08:39:20;;;;;;;157.57;142.57;;;1.70;99.90;;;;;;5050720;28;20040;-72
2024/01/14 08:41:46;;;;;;;156.50;141.73;;;1.60;99.90;;;;;;5043582;28;20467;-72
2024/01/14 08:44:14;;;;;;;153.67;139.47;;;1.70;99.90;;;;;;5048349;28;20052;-72
2024/01/14 08:46:40;;;;;;;132.30;118.73;;;1.80;99.90;;;;;;5049014;28;20044;-73
2024/01/14 08:49:07;;;;;;;135.67;122.47;;;1.90;99.90;;;;;;5046275;28;20037;-72
2024/01/14 08:51:33;;;;;;;107.87;90.03;;;1.80;99.90;;;;;;5048960;28;20036;-73
2024/01/14 08:54:01;;;;;;;119.70;105.40;;;1.60;99.90;;;;;;5051307;28;20033;-71
2024/01/14 08:56:30;;;;;;;117.10;104.53;;;1.40;99.90;;;;;;5049450;28;20052;-72
2024/01/14 08:58:57;;;;;;;133.73;120.10;;;1.30;99.90;;;;;;5050981;28;20043;-72
2024/01/14 09:01:23;;;;;;;112.70;92.30;;;1.40;99.90;;;;;;5047611;28;20036;-71
2024/01/14 09:03:49;;;;;;;110.70;88.50;;;1.60;99.90;;;;;;5050898;28;20025;-72
2024/01/14 09:06:15;;;;;;;109.27;91.40;;;1.70;99.90;;;;;;5048424;28;20431;-72
2024/01/14 09:08:42;;;;;;;190.23;174.93;;;1.60;99.90;;;;;;5045703;28;20476;-72
2024/01/14 09:11:08;;;;;;;107.20;95.50;;;1.40;99.90;;;;;;5040172;28;20036;-72
2024/01/14 09:13:34;;;;;;;118.93;106.90;;;1.20;99.90;;;;;;5039718;28;20541;-72
2024/01/14 09:16:01;;;;;;;100.57;83.63;;;1.20;99.90;;;;;;5042280;28;20044;-72
2024/01/14 09:18:27;;;;;;;112.60;100.60;;;1.20;99.90;;;;;;5040379;28;20040;-72
2024/01/14 09:20:53;;;;;;;148.87;134.63;;;1.30;99.90;;;;;;5037258;28;20514;-72
2024/01/14 09:23:22;;;;;;;117.60;104.73;;;1.30;99.90;;;;;;5040100;28;20040;-72
2024/01/14 09:25:48;;;;;;;110.17;98.13;;;1.30;99.90;;;;;;5036487;28;20472;-72
2024/01/14 09:28:15;;;;;;;124.57;112.00;;;1.20;99.90;;;;;;5040031;28;20033;-72
2024/01/14 09:30:41;;;;;;;122.13;109.37;;;1.20;99.90;;;;;;5039889;28;20036;-71
2024/01/14 09:33:07;;;;;;;117.87;105.33;;;1.20;99.90;;;;;;5037275;28;20723;-72
2024/01/14 09:35:33;;;;;;;117.40;101.33;;;1.20;99.90;;;;;;5041004;28;20033;-72
2024/01/14 09:37:59;;;;;;;120.97;107.57;;;1.20;99.90;;;;;;5038893;28;20041;-71
2024/01/14 09:40:25;;;;;;;124.57;109.57;;;1.30;99.90;;;;;;5041525;28;20037;-72
2024/01/14 09:42:51;;;;;;;125.73;112.53;;;1.60;99.90;;;;;;5043515;28;20060;-71
2024/01/14 09:45:17;;;;;;;155.63;140.47;;;1.80;99.90;;;;;;5030962;28;20510;-71
2024/01/14 09:47:43;;;;;;;156.67;142.27;;;2.00;99.90;;;;;;5049339;28;20040;-71
2024/01/14 09:50:10;;;;;;;172.77;157.57;;;2.00;99.90;;;;;;5036081;28;20021;-71
2024/01/14 09:52:39;;;;;;;159.87;145.10;;;1.90;99.90;;;;;;5054279;28;20424;-71
2024/01/14 09:55:06;;;;;;;162.93;148.27;;;1.80;99.90;;;;;;5049542;28;20032;-71
2024/01/14 09:57:33;;;;;;;174.77;159.17;;;1.90;99.90;;;;;;5052426;28;20132;-71
2024/01/14 10:00:03;;;;;;;178.30;162.97;;;1.90;99.90;;;;;;5053919;28;20033;-71
2024/01/14 10:02:29;;;;;;;185.53;169.63;;;1.80;99.90;;;;;;5036127;28;20033;-71
2024/01/14 10:04:55;;;;;;;191.30;174.60;;;1.90;99.90;;;;;;5052887;28;20100;-71
2024/01/14 10:07:24;;;;;;;191.10;174.57;;;1.90;99.90;;;;;;5052996;28;20400;-71
2024/01/14 10:09:50;;;;;;;187.17;171.83;;;2.00;99.90;;;;;;5051959;28;20058;-72
2024/01/14 10:12:16;;;;;;;166.83;151.53;;;2.20;99.90;;;;;;5050681;28;20033;-71
2024/01/14 10:14:42;;;;;;;92.23;71.90;;;2.20;99.90;;;;;;5051006;28;20048;-71
2024/01/14 10:17:09;;;;;;;117.27;105.27;;;2.20;99.90;;;;;;5051945;28;20052;-71
2024/01/14 10:19:37;;;;;;;89.57;70.07;;;2.20;99.90;;;;;;5051238;28;20048;-72
2024/01/14 10:22:03;;;;;;;106.23;92.73;;;2.10;99.90;;;;;;5054049;28;20479;-72
2024/01/14 10:24:29;;;;;;;107.20;86.03;;;2.10;99.90;;;;;;5051621;28;20044;-72
2024/01/14 10:26:55;;;;;;;142.30;129.83;;;2.10;99.90;;;;;;5050261;28;20037;-72
2024/01/14 10:29:22;;;;;;;99.73;87.73;;;2.00;99.90;;;;;;5053233;28;20029;-72
2024/01/14 10:31:48;;;;;;;99.23;79.27;;;2.00;99.90;;;;;;5054033;28;20033;-72
2024/01/14 10:34:17;;;;;;;93.00;70.10;;;2.30;99.90;;;;;;5052841;28;20053;-72
2024/01/14 10:36:43;;;;;;;89.80;66.40;;;2.50;99.90;;;;;;5053553;28;20036;-72
2024/01/14 10:39:11;;;;;;;95.57;68.37;;;2.70;99.90;;;;;;5048721;28;20430;-72
2024/01/14 10:41:38;;;;;;;166.07;151.27;;;2.90;99.90;;;;;;5041752;28;20032;-72
2024/01/14 10:44:04;;;;;;;196.47;180.43;;;2.80;99.90;;;;;;5045075;28;20427;-73
2024/01/14 10:46:30;;;;;;;207.70;190.37;;;2.70;99.90;;;;;;5048341;28;20041;-72
2024/01/14 10:49:07;;;;;;;129.87;117.30;;;2.70;99.90;;;;;;5040651;28;20593;-72
2024/01/14 10:51:42;;;;;;;194.10;177.90;;;2.70;99.90;;;;;;5040172;28;20025;-72
2024/01/14 10:54:35;;;;;;;105.20;93.67;;;2.70;99.90;;;;;;5043875;28;20427;-73
2024/01/14 10:57:26;;;;;;;124.23;111.97;;;2.80;99.90;;;;;;5039263;28;20037;-74
2024/01/14 11:00:12;;;;;;;107.32;95.85;;;2.80;99.90;;;;;;5050412;28;20033;-73
2024/01/14 11:02:40;;;;;;;158.53;143.47;;;3.00;99.90;;;;;;5036817;28;20040;-73
2024/01/14 11:05:07;;;;;;;108.43;96.97;;;2.90;99.90;;;;;;5044557;28;20033;-74
2024/01/14 11:07:33;;;;;;;186.60;171.07;;;3.10;99.90;;;;;;5046449;28;20048;-73
2024/01/14 11:10:00;;;;;;;136.67;124.33;;;3.40;99.90;;;;;;5048583;28;20029;-74
2024/01/14 11:12:29;;;;;;;115.63;103.80;;;3.30;99.90;;;;;;5031060;28;20041;-71
2024/01/14 11:15:05;;;;;;;118.87;107.07;;;3.20;99.90;;;;;;5048602;28;20032;-71
2024/01/14 11:17:55;;;;;;;100.70;83.00;;;3.00;99.90;;;;;;5051218;28;20041;-71
2024/01/14 11:20:29;;;;;;;101.83;88.90;;;3.20;99.90;;;;;;5039846;28;20040;-71
2024/01/14 11:22:55;;;;;;;118.50;106.83;;;3.00;99.90;;;;;;5043360;28;20044;-71
2024/01/14 11:25:22;;;;;;;107.00;95.97;;;2.90;99.90;;;;;;5039571;28;20029;-72
2024/01/14 11:27:48;;;;;;;124.80;112.73;;;2.80;99.90;;;;;;5048357;28;20053;-75
2024/01/14 11:30:18;;;;;;;137.00;124.07;;;2.80;99.90;;;;;;5038695;28;20044;-71
2024/01/14 11:32:44;;;;;;;149.43;135.37;;;2.90;99.90;;;;;;5038604;28;20048;-72
2024/01/14 11:35:11;;;;;;;141.40;128.13;;;3.00;99.90;;;;;;5038824;28;20395;-72
2024/01/14 11:37:37;;;;;;;163.83;149.60;;;2.90;99.90;;;;;;5038376;28;20037;-71
2024/01/14 11:40:06;;;;;;;131.57;118.80;;;2.90;99.90;;;;;;5042200;28;20021;-71
2024/01/14 11:42:37;;;;;;;186.73;171.00;;;2.90;99.90;;;;;;5039855;28;20037;-72
2024/01/14 11:45:04;;;;;;;191.10;175.82;;;3.00;99.90;;;;;;5046965;28;20035;-71
2024/01/14 11:47:37;;;;;;;97.67;87.27;;;3.20;99.90;;;;;;5041069;28;20032;-72
2024/01/14 11:50:03;;;;;;;141.90;128.57;;;3.20;99.90;;;;;;5039019;28;20033;-74
2024/01/14 11:52:29;;;;;;;207.53;190.73;;;3.10;99.90;;;;;;5047432;28;20029;-72
2024/01/14 11:54:55;;;;;;;161.23;146.87;;;3.30;99.90;;;;;;5048822;28;20040;-71
2024/01/14 11:57:23;;;;;;;184.43;169.13;;;3.40;99.90;;;;;;5041683;28;20043;-72
2024/01/14 11:59:50;;;;;;;206.93;190.50;;;3.50;99.90;;;;;;5045693;28;20041;-72
2024/01/14 12:02:16;;;;;;;186.33;171.40;;;3.50;99.90;;;;;;5037046;28;20041;-71
2024/01/14 12:04:43;;;;;;;145.80;132.57;;;3.70;99.90;;;;;;5054829;28;20033;-71
2024/01/14 12:07:09;;;;;;;116.03;104.43;;;3.90;99.90;;;;;;5037843;28;20022;-72
2024/01/14 12:09:35;;;;;;;108.17;97.07;;;3.90;99.90;;;;;;5028513;28;20481;-72
2024/01/14 12:12:07;;;;;;;112.23;100.83;;;4.10;99.90;;;;;;5039839;28;20017;-72
2024/01/14 12:14:37;;;;;;;126.50;114.17;;;4.10;99.90;;;;;;5039875;28;20518;-72
2024/01/14 12:17:10;;;;;;;140.10;126.73;;;4.20;99.90;;;;;;5038179;28;20041;-72
2024/01/14 12:19:36;;;;;;;156.27;141.90;;;3.80;99.90;;;;;;5045349;28;20037;-72
2024/01/14 12:22:05;;;;;;;147.20;133.93;;;3.90;99.90;;;;;;5041899;28;20029;-72